Anderson Dam, Idaho
Current Conditions -  °F | °C
As of 5:58 PM on Tuesday 25 Nov 2014 (Local Time) from KMUO Reporting Station
Scattered Clouds Scattered Clouds  
Wind Chill: 53°   Ceiling: Unl
Heat Index: 53°   Visibility: 10mi
Dew Point: 43°   Wind: 14mph
Humidity: 71%   Direction: 280°W
Pressure: 30.25"   Gusts: NA
Location:  43.2609°N, 115.781°W
Report Text: KMUO 260058Z 28012KT 10SM SCT140 11/06 A3025 RMK AO2A SLP251 T01140063
Loading
Personal Weather Stations






























Interactive Weather Map New forecast layout! Learn more

10-Day Weather Forecast

Advertisements
Track Severe Weather on mobile